Time;durP1;ratioP1;P1;durP2;ratioP2;P2;SDS_P1;SDS_P2;PMS_P1;PMS_P2;Temp;Humidity;BMP_temperature;BMP_pressure;BME280_temperature;BME280_humidity;BME280_pressure;Samples;Min_cycle;Max_cycle;Signal;HPM_P1;HPM_P2
2021/07/10 00:00:46;;;;;;;4.97;3.30;;;16.10;77.60;;;;;;5065346;28;20044;-68
2021/07/10 00:03:12;;;;;;;5.40;3.13;;;16.10;77.20;;;;;;5064993;28;20025;-67
2021/07/10 00:05:37;;;;;;;6.28;3.10;;;16.20;76.70;;;;;;5064876;28;20071;-67
2021/07/10 00:08:03;;;;;;;4.13;3.20;;;16.10;76.70;;;;;;5064649;28;20032;-68
2021/07/10 00:10:29;;;;;;;7.45;3.35;;;15.90;76.80;;;;;;5064824;28;20032;-68
2021/07/10 00:12:54;;;;;;;6.72;3.00;;;15.90;77.10;;;;;;5065402;28;20028;-68
2021/07/10 00:15:21;;;;;;;6.20;3.33;;;16.00;77.00;;;;;;5065024;28;20044;-68
2021/07/10 00:17:47;;;;;;;8.88;3.08;;;16.00;77.20;;;;;;5064559;28;20412;-67
2021/07/10 00:20:12;;;;;;;5.57;3.65;;;15.90;76.80;;;;;;5064397;28;20127;-68
2021/07/10 00:22:38;;;;;;;5.38;3.05;;;15.90;76.90;;;;;;5064378;28;20193;-68
2021/07/10 00:25:06;;;;;;;15.15;3.33;;;15.90;77.10;;;;;;5064871;28;20036;-68
2021/07/10 00:27:31;;;;;;;5.40;3.10;;;15.80;77.50;;;;;;5064796;28;20332;-68
2021/07/10 00:29:57;;;;;;;6.70;3.20;;;15.80;77.90;;;;;;5064280;28;20108;-68
2021/07/10 00:32:22;;;;;;;4.85;2.90;;;15.90;77.70;;;;;;5064182;28;20033;-68
2021/07/10 00:34:48;;;;;;;4.50;2.92;;;15.90;77.30;;;;;;5064289;28;20212;-68
2021/07/10 00:37:13;;;;;;;6.63;3.10;;;15.80;77.30;;;;;;5064758;28;20033;-68
2021/07/10 00:39:39;;;;;;;6.95;3.03;;;15.70;77.30;;;;;;5064458;28;20328;-68
2021/07/10 00:42:04;;;;;;;5.82;3.10;;;15.80;77.50;;;;;;5064360;28;20033;-68
2021/07/10 00:44:30;;;;;;;9.05;3.50;;;15.70;77.20;;;;;;5064474;28;20036;-68
2021/07/10 00:46:55;;;;;;;5.18;3.30;;;15.60;77.00;;;;;;5064064;28;20217;-67
2021/07/10 00:49:21;;;;;;;6.07;3.20;;;15.50;77.70;;;;;;5063143;28;20033;-68
2021/07/10 00:51:46;;;;;;;4.80;3.05;;;15.40;77.90;;;;;;5063786;28;20247;-67
2021/07/10 00:54:12;;;;;;;4.22;2.80;;;15.40;78.20;;;;;;5064302;28;20040;-68
2021/07/10 00:56:38;;;;;;;8.18;3.00;;;15.60;77.90;;;;;;5064024;28;20219;-68
2021/07/10 00:59:03;;;;;;;8.85;3.15;;;15.70;77.10;;;;;;5062968;28;20100;-68
2021/07/10 01:01:29;;;;;;;9.10;2.70;;;15.60;77.00;;;;;;5063787;28;20043;-68
2021/07/10 01:03:55;;;;;;;10.75;3.17;;;15.60;77.50;;;;;;5064508;28;20016;-68
2021/07/10 01:06:20;;;;;;;4.95;3.10;;;15.50;78.00;;;;;;5064269;28;20033;-68
2021/07/10 01:08:47;;;;;;;8.50;3.38;;;15.40;78.20;;;;;;5063736;28;20363;-68
2021/07/10 01:11:14;;;;;;;6.13;3.40;;;15.40;78.40;;;;;;5063864;28;20033;-68
2021/07/10 01:13:39;;;;;;;9.82;4.47;;;15.40;78.50;;;;;;5046114;28;20049;-68
2021/07/10 01:16:05;;;;;;;7.72;3.17;;;15.50;78.40;;;;;;5064368;28;20044;-68
2021/07/10 01:18:31;;;;;;;4.65;2.95;;;15.50;77.90;;;;;;5063930;28;20041;-68
2021/07/10 01:20:57;;;;;;;5.00;3.00;;;15.40;77.20;;;;;;5062856;28;20033;-68
2021/07/10 01:23:23;;;;;;;5.30;3.17;;;15.40;78.10;;;;;;5063496;28;20025;-68
2021/07/10 01:25:48;;;;;;;5.32;3.10;;;15.50;77.70;;;;;;5063430;28;20337;-68
2021/07/10 01:28:14;;;;;;;5.55;3.00;;;15.50;77.10;;;;;;5063930;28;20029;-68
2021/07/10 01:30:41;;;;;;;5.22;2.83;;;15.50;76.90;;;;;;5063415;28;20040;-68
2021/07/10 01:33:06;;;;;;;4.32;2.95;;;15.40;77.10;;;;;;5062871;28;20079;-68
2021/07/10 01:35:32;;;;;;;4.88;2.75;;;15.40;77.00;;;;;;5063333;28;20100;-68
2021/07/10 01:37:59;;;;;;;4.50;3.00;;;15.30;77.10;;;;;;5063247;28;20107;-68
2021/07/10 01:40:25;;;;;;;8.88;3.30;;;15.30;77.30;;;;;;5063524;28;20040;-68
2021/07/10 01:42:50;;;;;;;5.72;3.15;;;15.30;77.50;;;;;;5063793;28;20291;-68
2021/07/10 01:45:20;;;;;;;6.47;3.50;;;15.30;77.70;;;;;;5063738;28;20124;-68
2021/07/10 01:47:46;;;;;;;5.15;3.47;;;15.30;77.60;;;;;;5063726;28;20033;-67
2021/07/10 01:50:12;;;;;;;9.75;3.67;;;15.30;77.80;;;;;;5063448;28;20040;-68
2021/07/10 01:52:38;;;;;;;7.10;3.10;;;15.30;77.70;;;;;;5062369;28;20029;-68
2021/07/10 01:55:04;;;;;;;5.03;2.85;;;15.10;77.70;;;;;;5062491;28;20041;-68
2021/07/10 01:57:30;;;;;;;6.32;3.10;;;15.10;77.60;;;;;;5063572;28;20382;-68
2021/07/10 01:59:56;;;;;;;6.20;2.92;;;15.00;78.10;;;;;;5063263;28;20029;-68
2021/07/10 02:02:21;;;;;;;4.35;3.00;;;15.10;77.90;;;;;;5063408;28;20033;-68
2021/07/10 02:04:47;;;;;;;4.88;3.10;;;15.10;77.40;;;;;;5067045;28;20252;-68
2021/07/10 02:07:14;;;;;;;10.38;2.85;;;15.20;77.30;;;;;;5068026;28;20039;-68
2021/07/10 02:09:39;;;;;;;9.57;3.28;;;15.20;77.00;;;;;;5066970;28;20241;-68
2021/07/10 02:12:05;;;;;;;3.78;2.83;;;15.20;77.00;;;;;;5066915;28;20040;-68
2021/07/10 02:14:31;;;;;;;3.45;3.08;;;15.20;77.00;;;;;;5067188;28;20045;-68
2021/07/10 02:16:56;;;;;;;6.70;2.85;;;15.20;77.30;;;;;;5066949;28;20036;-68
2021/07/10 02:19:22;;;;;;;5.85;2.97;;;15.20;77.10;;;;;;5066705;28;20036;-68
2021/07/10 02:21:47;;;;;;;3.47;2.85;;;15.10;77.40;;;;;;5067798;28;20020;-68
2021/07/10 02:24:13;;;;;;;6.05;3.03;;;15.10;77.40;;;;;;5066736;28;20029;-68
2021/07/10 02:26:38;;;;;;;3.53;2.83;;;15.10;77.50;;;;;;5066599;28;20037;-68
2021/07/10 02:29:04;;;;;;;5.82;2.70;;;15.10;77.30;;;;;;5066559;28;20052;-68
2021/07/10 02:31:30;;;;;;;5.63;3.17;;;15.20;77.20;;;;;;5066752;28;20029;-68
2021/07/10 02:33:55;;;;;;;9.05;3.25;;;15.20;76.30;;;;;;5067346;28;20335;-68
2021/07/10 02:36:21;;;;;;;4.20;3.05;;;15.20;75.90;;;;;;5066973;28;20037;-68
2021/07/10 02:38:47;;;;;;;3.60;2.47;;;15.00;76.80;;;;;;5066287;28;20101;-68
2021/07/10 02:41:13;;;;;;;6.65;3.05;;;15.00;77.10;;;;;;5065810;28;20042;-68
2021/07/10 02:43:38;;;;;;;4.95;3.00;;;15.00;76.80;;;;;;5066630;28;20051;-68
2021/07/10 02:46:04;;;;;;;9.75;4.28;;;15.10;76.40;;;;;;5066323;28;20028;-68
2021/07/10 02:48:30;;;;;;;5.25;2.80;;;15.00;76.00;;;;;;5066720;28;20066;-68
2021/07/10 02:50:55;;;;;;;4.55;3.00;;;15.00;76.20;;;;;;5066474;28;20037;-68
2021/07/10 02:53:21;;;;;;;7.93;3.40;;;15.00;75.90;;;;;;5066561;28;20040;-68
2021/07/10 02:55:47;;;;;;;5.00;2.97;;;14.90;76.80;;;;;;5066061;28;20029;-68
2021/07/10 02:58:13;;;;;;;6.03;2.75;;;14.90;77.10;;;;;;5066797;28;20033;-68
2021/07/10 03:00:39;;;;;;;4.85;2.60;;;14.90;76.60;;;;;;5066048;28;20336;-68
2021/07/10 03:03:04;;;;;;;4.68;2.92;;;14.90;76.60;;;;;;5066353;28;20079;-68
2021/07/10 03:05:33;;;;;;;3.85;2.75;;;14.90;76.50;;;;;;5066273;28;20033;-68
2021/07/10 03:07:59;;;;;;;5.78;2.60;;;14.90;76.40;;;;;;5066005;28;20029;-68
2021/07/10 03:10:27;;;;;;;5.10;2.70;;;14.90;76.00;;;;;;5065829;28;20044;-68
2021/07/10 03:12:56;;;;;;;3.33;2.80;;;14.80;76.30;;;;;;5066603;28;20048;-68
2021/07/10 03:15:22;;;;;;;4.50;2.85;;;15.00;75.90;;;;;;5064089;28;20059;-68
2021/07/10 03:17:48;;;;;;;5.88;2.67;;;14.90;75.60;;;;;;5064516;28;20107;-68
2021/07/10 03:20:14;;;;;;;4.75;2.92;;;14.90;75.50;;;;;;5065605;28;20040;-68
2021/07/10 03:22:39;;;;;;;3.60;3.05;;;14.80;75.80;;;;;;5065492;28;20025;-68
2021/07/10 03:25:06;;;;;;;5.03;2.80;;;14.80;75.90;;;;;;5065019;28;20324;-68
2021/07/10 03:27:32;;;;;;;4.80;2.72;;;14.70;76.20;;;;;;5066008;28;20263;-68
2021/07/10 03:29:58;;;;;;;4.03;3.00;;;14.80;75.90;;;;;;5065837;28;20032;-68
2021/07/10 03:32:23;;;;;;;4.53;2.90;;;14.80;75.60;;;;;;5065636;28;20221;-68
2021/07/10 03:34:49;;;;;;;8.20;2.78;;;14.80;75.80;;;;;;5064411;28;20033;-68
2021/07/10 03:37:14;;;;;;;4.35;2.60;;;14.80;75.80;;;;;;5066043;28;20095;-68
2021/07/10 03:39:40;;;;;;;4.20;2.80;;;14.80;75.70;;;;;;5065313;28;20033;-68
2021/07/10 03:42:05;;;;;;;4.22;2.90;;;14.80;75.80;;;;;;5065712;28;20037;-68
2021/07/10 03:44:31;;;;;;;4.30;2.90;;;14.70;75.80;;;;;;5064323;28;20083;-68
2021/07/10 03:46:57;;;;;;;14.95;3.15;;;14.70;75.80;;;;;;5065155;28;20035;-68
2021/07/10 03:49:22;;;;;;;5.22;2.88;;;14.60;76.20;;;;;;5065039;28;20036;-68
2021/07/10 03:51:48;;;;;;;4.35;2.88;;;14.60;76.30;;;;;;5065843;28;20025;-68
2021/07/10 03:54:13;;;;;;;4.50;2.65;;;14.60;76.70;;;;;;5065055;28;20033;-68
2021/07/10 03:56:38;;;;;;;4.93;2.85;;;14.60;76.90;;;;;;5063670;28;20041;-68
2021/07/10 03:59:04;;;;;;;7.55;2.78;;;14.60;76.50;;;;;;5064973;28;20041;-68
2021/07/10 04:01:32;;;;;;;5.15;2.75;;;14.50;77.20;;;;;;5065113;28;20033;-68
2021/07/10 04:03:58;;;;;;;4.32;2.97;;;14.50;77.40;;;;;;5065602;28;20301;-68
2021/07/10 04:06:23;;;;;;;5.20;2.92;;;14.60;76.90;;;;;;5065228;28;20045;-68
2021/07/10 04:08:49;;;;;;;4.25;2.40;;;14.50;77.40;;;;;;5064638;28;20100;-67
2021/07/10 04:11:14;;;;;;;5.30;2.90;;;14.50;77.40;;;;;;5064963;28;20092;-67
2021/07/10 04:13:40;;;;;;;5.32;3.10;;;14.50;77.60;;;;;;5064666;28;20058;-67
2021/07/10 04:16:05;;;;;;;6.13;3.00;;;14.50;77.90;;;;;;5065394;28;20043;-67
2021/07/10 04:18:32;;;;;;;9.13;2.67;;;14.50;78.20;;;;;;5064905;28;20252;-67
2021/07/10 04:20:57;;;;;;;5.85;2.97;;;14.70;77.90;;;;;;5064879;28;20033;-68
2021/07/10 04:23:25;;;;;;;7.57;3.13;;;14.80;77.50;;;;;;5063618;28;20229;-68
2021/07/10 04:25:53;;;;;;;6.38;2.90;;;14.70;77.30;;;;;;5064165;28;20029;-68
2021/07/10 04:28:19;;;;;;;3.55;2.88;;;14.80;77.20;;;;;;5064344;28;20037;-68
2021/07/10 04:30:44;;;;;;;5.82;2.83;;;14.80;77.10;;;;;;5064804;28;20071;-67
2021/07/10 04:33:10;;;;;;;5.03;3.00;;;14.80;77.10;;;;;;5064237;28;20037;-68
2021/07/10 04:35:35;;;;;;;5.57;3.00;;;14.70;77.50;;;;;;5064748;28;20041;-67
2021/07/10 04:38:01;;;;;;;5.22;3.00;;;14.80;77.50;;;;;;5064421;28;20201;-68
2021/07/10 04:40:27;;;;;;;7.68;3.22;;;14.70;77.60;;;;;;5062936;28;20033;-68
2021/07/10 04:42:52;;;;;;;5.18;2.83;;;14.80;77.60;;;;;;5064855;28;20033;-68
2021/07/10 04:45:18;;;;;;;10.43;2.97;;;14.70;77.90;;;;;;5064525;28;20037;-68
2021/07/10 04:47:43;;;;;;;3.20;2.80;;;14.70;78.40;;;;;;5064299;28;20029;-68
2021/07/10 04:50:10;;;;;;;9.32;2.90;;;14.70;79.00;;;;;;5063976;28;20128;-67
2021/07/10 04:52:35;;;;;;;3.55;2.80;;;14.80;79.00;;;;;;5064134;28;20025;-67
2021/07/10 04:55:02;;;;;;;6.60;3.00;;;14.90;78.50;;;;;;5064152;28;20045;-68
2021/07/10 04:57:28;;;;;;;4.28;3.10;;;14.90;78.50;;;;;;5064251;28;20036;-67
2021/07/10 04:59:53;;;;;;;6.60;3.40;;;14.90;78.60;;;;;;5064203;28;20350;-68
2021/07/10 05:02:19;;;;;;;6.03;4.00;;;14.90;78.80;;;;;;5064111;28;20029;-68
2021/07/10 05:04:44;;;;;;;5.72;3.22;;;14.80;79.70;;;;;;5063724;28;20025;-68
2021/07/10 05:07:10;;;;;;;4.10;3.45;;;14.90;79.40;;;;;;5064410;28;20033;-68
2021/07/10 05:09:35;;;;;;;5.78;3.65;;;14.90;79.70;;;;;;5064185;28;20040;-68
2021/07/10 05:12:01;;;;;;;4.07;3.50;;;15.10;79.30;;;;;;5063948;28;20079;-68
2021/07/10 05:14:26;;;;;;;9.27;3.90;;;15.20;79.00;;;;;;5063721;28;20202;-68
2021/07/10 05:16:53;;;;;;;6.13;3.67;;;15.30;79.00;;;;;;5063681;28;20071;-68
2021/07/10 05:19:19;;;;;;;6.13;3.60;;;15.20;79.40;;;;;;5062349;28;20245;-67
2021/07/10 05:21:44;;;;;;;13.40;5.07;;;15.30;79.20;;;;;;5064447;28;20036;-68
2021/07/10 05:24:10;;;;;;;8.23;3.53;;;15.30;79.60;;;;;;5063931;28;20037;-68
2021/07/10 05:26:35;;;;;;;5.45;3.63;;;15.40;79.20;;;;;;5062616;28;20029;-68
2021/07/10 05:29:03;;;;;;;5.88;3.38;;;15.30;79.50;;;;;;5063577;28;20088;-68
2021/07/10 05:31:28;;;;;;;4.28;3.50;;;15.30;79.60;;;;;;5063527;28;20029;-68
2021/07/10 05:33:54;;;;;;;5.53;3.97;;;15.40;79.30;;;;;;5063834;28;20028;-68
2021/07/10 05:36:19;;;;;;;6.95;4.10;;;15.50;79.30;;;;;;5063726;28;20029;-68
2021/07/10 05:38:45;;;;;;;4.10;3.58;;;15.50;79.50;;;;;;5066269;28;20044;-68
2021/07/10 05:41:11;;;;;;;4.53;3.40;;;15.50;79.70;;;;;;5067803;28;20033;-67
2021/07/10 05:43:36;;;;;;;3.90;3.20;;;15.60;79.40;;;;;;5067071;28;20056;-68
2021/07/10 05:46:02;;;;;;;3.90;3.30;;;15.70;79.60;;;;;;5067160;28;20074;-68
2021/07/10 05:48:27;;;;;;;4.85;3.50;;;15.70;79.70;;;;;;5067827;28;20090;-68
2021/07/10 05:50:53;;;;;;;4.65;3.90;;;15.80;79.40;;;;;;5067345;28;20025;-68
2021/07/10 05:53:18;;;;;;;5.75;3.35;;;15.80;79.30;;;;;;5066148;28;20029;-67
2021/07/10 05:55:44;;;;;;;5.60;3.42;;;15.90;79.70;;;;;;5067106;28;20033;-67
2021/07/10 05:58:11;;;;;;;3.90;3.50;;;15.90;79.60;;;;;;5067858;28;20088;-68
2021/07/10 06:00:36;;;;;;;7.22;3.90;;;16.00;79.60;;;;;;5067585;28;20039;-68
2021/07/10 06:03:02;;;;;;;6.40;3.83;;;15.90;79.70;;;;;;5067459;28;20336;-68
2021/07/10 06:05:28;;;;;;;5.68;3.67;;;16.00;80.00;;;;;;5067389;28;20205;-67
2021/07/10 06:07:54;;;;;;;5.32;3.85;;;16.00;80.40;;;;;;5067047;28;20029;-68
2021/07/10 06:10:19;;;;;;;6.35;4.18;;;15.70;80.30;;;;;;5067285;28;20032;-67
2021/07/10 06:12:45;;;;;;;5.32;4.03;;;15.60;81.30;;;;;;5066552;28;20083;-67
2021/07/10 06:15:11;;;;;;;6.28;4.20;;;15.80;81.10;;;;;;5066862;28;20116;-67
2021/07/10 06:17:37;;;;;;;7.57;3.60;;;15.90;80.80;;;;;;5065627;28;20072;-67
2021/07/10 06:20:04;;;;;;;5.18;3.95;;;16.00;80.80;;;;;;5066677;28;20079;-67
2021/07/10 06:22:30;;;;;;;7.25;4.30;;;16.10;80.80;;;;;;5065876;28;20024;-67
2021/07/10 06:24:55;;;;;;;7.13;4.90;;;16.30;80.60;;;;;;5067245;28;20017;-67
2021/07/10 06:27:21;;;;;;;7.40;4.95;;;16.10;81.10;;;;;;5067131;28;20108;-68
2021/07/10 06:29:46;;;;;;;6.53;5.13;;;16.20;81.00;;;;;;5066853;28;20044;-69
2021/07/10 06:32:12;;;;;;;8.68;6.15;;;16.30;81.20;;;;;;5066592;28;20207;-68
2021/07/10 06:34:37;;;;;;;8.13;5.38;;;16.30;81.20;;;;;;5065426;28;20033;-68
2021/07/10 06:37:04;;;;;;;7.82;5.78;;;16.40;81.00;;;;;;5067430;28;20084;-68
2021/07/10 06:39:30;;;;;;;6.75;5.13;;;16.50;80.80;;;;;;5066918;28;20033;-68
2021/07/10 06:41:55;;;;;;;8.80;5.60;;;16.60;81.60;;;;;;5066744;28;20193;-68
2021/07/10 06:44:21;;;;;;;6.45;5.40;;;16.70;80.60;;;;;;5066509;28;20039;-69
2021/07/10 06:46:46;;;;;;;7.45;5.28;;;16.80;81.00;;;;;;5066277;28;20029;-68
2021/07/10 06:49:12;;;;;;;18.85;5.85;;;16.80;81.30;;;;;;5067016;28;20036;-68
2021/07/10 06:51:37;;;;;;;12.35;6.45;;;16.80;81.20;;;;;;5066674;28;20041;-68
2021/07/10 06:54:03;;;;;;;6.20;4.95;;;16.80;81.10;;;;;;5066531;28;20047;-68
2021/07/10 06:56:28;;;;;;;7.18;5.38;;;17.00;80.70;;;;;;5065889;28;20064;-67
2021/07/10 06:58:54;;;;;;;7.93;5.60;;;17.10;81.10;;;;;;5065040;28;20053;-67
2021/07/10 07:01:19;;;;;;;8.40;5.57;;;17.20;81.00;;;;;;5066027;28;20028;-68
2021/07/10 07:03:45;;;;;;;7.20;5.40;;;17.30;80.80;;;;;;5066727;28;20029;-68
2021/07/10 07:06:10;;;;;;;7.95;5.43;;;17.30;81.20;;;;;;5066324;28;20328;-68
2021/07/10 07:08:36;;;;;;;7.97;5.95;;;17.40;80.50;;;;;;5066068;28;20029;-68
2021/07/10 07:11:01;;;;;;;6.90;5.50;;;17.40;80.40;;;;;;5064712;28;20096;-68
2021/07/10 07:13:27;;;;;;;7.95;5.72;;;17.50;79.60;;;;;;5066078;28;20092;-68
2021/07/10 07:15:52;;;;;;;8.75;5.45;;;17.60;79.90;;;;;;5066538;28;20021;-69
2021/07/10 07:18:18;;;;;;;7.97;5.60;;;17.70;79.60;;;;;;5066085;28;20044;-68
2021/07/10 07:20:43;;;;;;;7.07;5.80;;;17.80;79.80;;;;;;5065840;28;20037;-69
2021/07/10 07:23:10;;;;;;;8.35;5.47;;;17.80;79.30;;;;;;5065958;28;20040;-69
2021/07/10 07:25:35;;;;;;;7.50;5.75;;;18.00;80.00;;;;;;5065752;28;20029;-69
2021/07/10 07:28:01;;;;;;;7.75;5.50;;;18.10;79.50;;;;;;5066026;28;20033;-69
2021/07/10 07:30:26;;;;;;;6.80;5.45;;;18.30;79.40;;;;;;5064843;28;20068;-68
2021/07/10 07:32:52;;;;;;;6.47;4.80;;;18.30;78.50;;;;;;5065673;28;20044;-68
2021/07/10 07:35:18;;;;;;;8.43;5.30;;;18.30;78.30;;;;;;5065465;28;20033;-72
2021/07/10 07:37:43;;;;;;;7.20;5.43;;;18.50;78.50;;;;;;5034443;28;20055;-68
2021/07/10 07:40:14;;;;;;;6.40;4.88;;;18.60;78.70;;;;;;5035357;28;20267;-68
2021/07/10 07:42:40;;;;;;;10.25;5.68;;;18.70;78.30;;;;;;5066132;28;20332;-68
2021/07/10 07:45:07;;;;;;;7.35;5.70;;;18.80;78.50;;;;;;5064192;28;20044;-69
2021/07/10 07:47:33;;;;;;;8.07;5.10;;;18.80;77.60;;;;;;5064149;28;20044;-70
2021/07/10 07:49:58;;;;;;;10.27;5.07;;;19.00;78.10;;;;;;5065028;28;20091;-69
2021/07/10 07:52:24;;;;;;;9.85;5.18;;;19.10;76.90;;;;;;5065166;28;20392;-69
2021/07/10 07:54:49;;;;;;;8.25;6.05;;;19.30;76.90;;;;;;5065486;28;20029;-69
2021/07/10 07:57:15;;;;;;;8.10;5.68;;;19.30;76.80;;;;;;5064801;28;20277;-69
2021/07/10 07:59:40;;;;;;;11.55;6.82;;;19.50;76.50;;;;;;5064876;28;20029;-69
2021/07/10 08:02:07;;;;;;;22.70;10.73;;;19.50;74.20;;;;;;5064254;28;20033;-70
2021/07/10 08:04:32;;;;;;;9.50;6.40;;;19.60;74.90;;;;;;5064699;28;20036;-69
2021/07/10 08:06:58;;;;;;;12.80;6.95;;;19.70;75.10;;;;;;5065196;28;20021;-68
2021/07/10 08:09:24;;;;;;;8.55;5.57;;;19.90;76.10;;;;;;5047336;28;20343;-67
2021/07/10 08:11:49;;;;;;;10.25;6.22;;;20.10;75.60;;;;;;5064958;28;20033;-67
2021/07/10 08:14:15;;;;;;;14.40;7.63;;;20.30;73.90;;;;;;5064745;28;20029;-67
2021/07/10 08:16:40;;;;;;;12.52;7.50;;;20.40;73.60;;;;;;5064452;28;20037;-69
2021/07/10 08:19:06;;;;;;;14.50;6.95;;;20.50;73.90;;;;;;5064885;28;20036;-67
2021/07/10 08:21:33;;;;;;;20.63;10.50;;;20.60;71.90;;;;;;5064910;28;20033;-68
2021/07/10 08:23:59;;;;;;;16.65;7.60;;;20.70;72.90;;;;;;5064405;28;20078;-69
2021/07/10 08:26:25;;;;;;;13.43;7.28;;;20.80;72.40;;;;;;5064763;28;20045;-69
2021/07/10 08:28:51;;;;;;;11.07;7.07;;;20.80;71.80;;;;;;5064683;28;20049;-70
2021/07/10 08:31:16;;;;;;;7.47;4.63;;;21.00;72.10;;;;;;5065052;28;20037;-69
2021/07/10 08:33:42;;;;;;;12.30;7.15;;;21.10;71.30;;;;;;5064739;28;20232;-69
2021/07/10 08:36:07;;;;;;;21.92;11.80;;;21.10;71.20;;;;;;5064470;28;20079;-69
2021/07/10 08:38:34;;;;;;;13.43;7.80;;;21.20;70.80;;;;;;5064021;28;20037;-71
2021/07/10 08:40:59;;;;;;;7.38;4.95;;;21.30;71.70;;;;;;5064592;28;20070;-71
2021/07/10 08:43:25;;;;;;;24.25;13.55;;;21.40;71.30;;;;;;5064251;28;20041;-72
2021/07/10 08:45:50;;;;;;;20.80;12.20;;;21.30;70.00;;;;;;5063311;28;20028;-71
2021/07/10 08:48:16;;;;;;;8.80;5.88;;;21.40;71.00;;;;;;5064302;28;20048;-70
2021/07/10 08:50:42;;;;;;;17.65;10.45;;;21.40;71.10;;;;;;5063898;28;20038;-70
2021/07/10 08:53:09;;;;;;;8.50;5.88;;;21.40;69.50;;;;;;5062679;28;20033;-68
2021/07/10 08:55:36;;;;;;;8.93;4.40;;;21.50;69.40;;;;;;5063630;28;20040;-69
2021/07/10 08:58:02;;;;;;;4.97;3.58;;;21.70;69.00;;;;;;5064132;28;20044;-71
2021/07/10 09:00:38;;;;;;;15.07;9.60;;;21.80;70.70;;;;;;5064278;28;20321;-71
2021/07/10 09:03:04;;;;;;;11.65;6.93;;;22.00;70.00;;;;;;5063175;28;20033;-70
2021/07/10 09:05:30;;;;;;;8.90;6.47;;;21.80;69.00;;;;;;5062805;28;20032;-71
2021/07/10 09:08:19;;;;;;;9.23;5.50;;;21.90;68.40;;;;;;5063708;28;20037;-71
2021/07/10 09:10:49;;;;;;;11.98;8.20;;;22.20;70.30;;;;;;5063851;28;20029;-70
2021/07/10 09:13:15;;;;;;;8.13;5.27;;;22.20;68.30;;;;;;5063328;28;20021;-71
2021/07/10 09:15:41;;;;;;;10.25;5.20;;;22.30;68.70;;;;;;5062449;28;20040;-70
2021/07/10 09:18:09;;;;;;;9.00;6.35;;;22.20;68.90;;;;;;5063595;28;20256;-71
2021/07/10 09:20:35;;;;;;;6.10;4.35;;;22.10;68.30;;;;;;5045923;28;20355;-70
2021/07/10 09:23:01;;;;;;;6.22;4.43;;;22.30;66.80;;;;;;5063734;28;20033;-70
2021/07/10 09:25:32;;;;;;;6.90;5.05;;;22.50;69.40;;;;;;5063389;28;20247;-71
2021/07/10 09:28:00;;;;;;;5.20;4.05;;;22.70;68.80;;;;;;5063939;28;20058;-71
2021/07/10 09:30:33;;;;;;;6.80;4.32;;;22.70;67.60;;;;;;5063649;28;20060;-72
2021/07/10 09:33:18;;;;;;;7.55;3.78;;;22.80;65.50;;;;;;5063771;28;20043;-69
2021/07/10 09:35:53;;;;;;;6.40;4.22;;;22.90;64.30;;;;;;5063556;28;20064;-70
2021/07/10 09:38:27;;;;;;;7.18;4.47;;;22.90;62.00;;;;;;5063366;28;20355;-70
2021/07/10 09:41:09;;;;;;;4.43;3.80;;;23.00;62.20;;;;;;5062342;28;20051;-70
2021/07/10 09:43:37;;;;;;;6.10;3.80;;;23.30;66.00;;;;;;5063282;28;20040;-69
2021/07/10 09:46:05;;;;;;;5.05;4.10;;;23.30;64.80;;;;;;5063998;28;20048;-69
2021/07/10 09:48:32;;;;;;;4.97;3.90;;;23.40;65.70;;;;;;5063711;28;20036;-69
2021/07/10 09:51:20;;;;;;;7.32;4.18;;;23.50;66.00;;;;;;5063490;28;20033;-69
2021/07/10 09:54:07;;;;;;;7.72;4.25;;;23.50;66.40;;;;;;5045215;28;20025;-69
2021/07/10 09:56:35;;;;;;;5.70;4.28;;;23.50;66.10;;;;;;5063052;28;20052;-70
2021/07/10 09:59:15;;;;;;;5.10;3.70;;;23.80;66.10;;;;;;5061905;28;20048;-68
2021/07/10 10:01:40;;;;;;;6.28;4.00;;;23.90;63.90;;;;;;5062697;28;20040;-69
2021/07/10 10:04:27;;;;;;;5.00;3.10;;;23.70;63.50;;;;;;5064163;28;20025;-72
2021/07/10 10:06:54;;;;;;;20.63;5.95;;;23.80;61.40;;;;;;5063866;28;20044;-71
2021/07/10 10:09:24;;;;;;;4.72;3.20;;;23.80;62.30;;;;;;5063046;28;20083;-71
2021/07/10 10:12:04;;;;;;;13.68;3.67;;;24.00;60.00;;;;;;5063308;28;20040;-69
2021/07/10 10:14:35;;;;;;;4.35;3.28;;;24.00;61.40;;;;;;5063044;28;20033;-69
2021/07/10 10:17:00;;;;;;;4.60;3.45;;;24.10;64.40;;;;;;5045839;28;20048;-71
2021/07/10 10:19:31;;;;;;;5.35;3.67;;;24.00;62.60;;;;;;5062902;28;20078;-70
2021/07/10 10:21:58;;;;;;;8.98;3.00;;;24.00;63.70;;;;;;5062745;28;20285;-69
2021/07/10 10:24:24;;;;;;;4.53;3.20;;;24.20;63.20;;;;;;5047532;28;20037;-69
2021/07/10 10:26:51;;;;;;;5.05;3.38;;;24.20;59.80;;;;;;5065607;28;20079;-68
2021/07/10 10:29:18;;;;;;;6.15;3.55;;;24.10;62.90;;;;;;5066921;28;20028;-71
2021/07/10 10:31:43;;;;;;;5.93;3.25;;;23.90;59.80;;;;;;5065724;28;20076;-71
2021/07/10 10:34:09;;;;;;;5.00;3.35;;;23.90;60.70;;;;;;5033476;28;20040;-70
2021/07/10 10:36:36;;;;;;;6.18;3.13;;;24.00;62.30;;;;;;5066878;28;20100;-69
2021/07/10 10:39:08;;;;;;;5.72;3.58;;;23.90;62.10;;;;;;5066022;28;20051;-70
2021/07/10 10:41:37;;;;;;;3.90;3.10;;;23.90;59.90;;;;;;5066385;28;20378;-70
2021/07/10 10:44:03;;;;;;;7.10;3.78;;;24.00;60.70;;;;;;5066682;28;20040;-71
2021/07/10 10:46:29;;;;;;;4.75;3.28;;;24.10;58.40;;;;;;5065153;28;20139;-71
2021/07/10 10:48:54;;;;;;;5.28;3.50;;;24.20;61.30;;;;;;5066014;28;20035;-69
2021/07/10 10:51:28;;;;;;;6.57;2.80;;;24.40;60.30;;;;;;5066658;28;20367;-69
2021/07/10 10:54:14;;;;;;;4.45;2.47;;;24.60;58.70;;;;;;5065067;28;20131;-69
2021/07/10 10:56:39;;;;;;;4.28;3.13;;;24.70;56.90;;;;;;5064722;28;20052;-69
2021/07/10 10:59:36;;;;;;;5.30;3.05;;;24.70;58.60;;;;;;5065848;28;20348;-69
2021/07/10 11:02:03;;;;;;;3.85;3.17;;;24.80;58.50;;;;;;5065804;28;20039;-69
2021/07/10 11:04:48;;;;;;;5.20;3.30;;;24.90;60.00;;;;;;5066388;28;20040;-69
2021/07/10 11:07:25;;;;;;;7.18;3.97;;;25.00;60.90;;;;;;5066413;28;20094;-69
2021/07/10 11:10:02;;;;;;;6.22;3.30;;;25.20;60.20;;;;;;5066538;28;20221;-69
2021/07/10 11:12:46;;;;;;;3.92;2.72;;;25.30;58.50;;;;;;5066260;28;20041;-69
2021/07/10 11:15:24;;;;;;;6.47;3.22;;;25.30;59.60;;;;;;5066225;28;20052;-69
2021/07/10 11:17:49;;;;;;;3.95;2.40;;;25.30;54.50;;;;;;5065780;28;20036;-70
2021/07/10 11:20:47;;;;;;;4.32;2.45;;;25.40;57.80;;;;;;5065860;28;20029;-70
2021/07/10 11:23:26;;;;;;;4.55;3.28;;;25.40;57.00;;;;;;5064469;28;20032;-70
2021/07/10 11:25:52;;;;;;;3.65;3.05;;;25.40;56.70;;;;;;5048275;28;20037;-70
2021/07/10 11:28:22;;;;;;;6.38;3.30;;;25.30;57.20;;;;;;5065633;28;20036;-69
2021/07/10 11:30:52;;;;;;;4.82;3.17;;;25.40;58.80;;;;;;5064852;28;20037;-69
2021/07/10 11:33:56;;;;;;;4.50;2.63;;;25.50;56.60;;;;;;5065838;28;20032;-69
2021/07/10 11:36:44;;;;;;;4.10;2.75;;;25.50;55.70;;;;;;5064876;28;20088;-69
2021/07/10 11:39:25;;;;;;;5.80;2.90;;;25.60;55.40;;;;;;5065700;28;20037;-69
2021/07/10 11:41:55;;;;;;;3.42;2.53;;;25.50;54.00;;;;;;5065702;28;20040;-70
2021/07/10 11:44:23;;;;;;;3.95;2.50;;;25.30;53.00;;;;;;5047710;28;20263;-70
2021/07/10 11:47:00;;;;;;;3.63;2.80;;;25.30;53.50;;;;;;5065511;28;20040;-70
2021/07/10 11:49:35;;;;;;;4.10;2.83;;;25.40;56.30;;;;;;5063949;28;20092;-70
2021/07/10 11:52:18;;;;;;;6.38;3.05;;;25.50;53.50;;;;;;5065874;28;20024;-70
2021/07/10 11:54:52;;;;;;;7.25;3.38;;;25.50;56.60;;;;;;5065578;28;20029;-70
2021/07/10 11:57:18;;;;;;;4.72;3.25;;;25.70;58.30;;;;;;5065000;28;20047;-70
2021/07/10 11:59:44;;;;;;;3.72;3.00;;;25.80;58.70;;;;;;5063750;28;20033;-70
2021/07/10 12:02:22;;;;;;;4.35;2.85;;;25.80;57.20;;;;;;5065072;28;20092;-70
2021/07/10 12:05:02;;;;;;;3.90;2.70;;;25.80;58.20;;;;;;5064984;28;20328;-70
2021/07/10 12:07:29;;;;;;;4.03;2.80;;;25.70;53.80;;;;;;5047394;28;20029;-69
2021/07/10 12:09:54;;;;;;;3.95;3.00;;;25.60;53.30;;;;;;5064279;28;20033;-69
2021/07/10 12:12:20;;;;;;;4.40;2.92;;;25.80;56.00;;;;;;5047246;28;20086;-70
2021/07/10 12:14:56;;;;;;;3.90;2.90;;;25.90;56.00;;;;;;5064871;28;20057;-69
2021/07/10 12:17:22;;;;;;;4.65;2.88;;;25.90;57.20;;;;;;5065287;28;20036;-69
2021/07/10 12:19:48;;;;;;;4.82;2.70;;;26.00;57.00;;;;;;5064525;28;20037;-70
2021/07/10 12:22:14;;;;;;;5.75;2.90;;;26.00;55.00;;;;;;5064487;28;20212;-69
2021/07/10 12:24:39;;;;;;;3.88;2.80;;;26.10;56.20;;;;;;5065057;28;20037;-70
2021/07/10 12:27:15;;;;;;;4.43;2.72;;;26.20;57.60;;;;;;5063612;28;20266;-70
2021/07/10 12:29:51;;;;;;;3.65;2.78;;;26.20;56.10;;;;;;5064449;28;20037;-69
2021/07/10 12:32:16;;;;;;;5.85;2.65;;;26.20;55.30;;;;;;5064303;28;20032;-69
2021/07/10 12:34:49;;;;;;;4.93;3.08;;;26.20;53.90;;;;;;5064402;28;20036;-70
2021/07/10 12:37:28;;;;;;;4.95;3.05;;;26.10;53.40;;;;;;5063953;28;20017;-70
2021/07/10 12:40:08;;;;;;;4.28;2.70;;;26.00;54.00;;;;;;5063842;28;20041;-69
2021/07/10 12:42:33;;;;;;;4.05;3.05;;;26.10;55.10;;;;;;5064716;28;20029;-70
2021/07/10 12:44:59;;;;;;;3.70;2.70;;;26.20;56.30;;;;;;5064039;28;20052;-69
2021/07/10 12:47:26;;;;;;;5.88;2.95;;;26.20;55.10;;;;;;5064154;28;20033;-74